EFVA

Vaasa Airport

Vaasa, Finland
METAR EFVA 151320Z AUTO 09005KT 070V130 9999 -SN OVC011/// M01/M02 Q0992
Observed Flight Rules
Dec-15 @ 13:20 UTC (32 minutes ago) Marginal Visual Flight Rules
Wind Visibility Clouds Conditions
90° at 5 knots 10,000+ meters
  • Overcast at 1,100' AGL
  • Light Snow
Temperatures Readings
Current -1°C / 30°F
Dewpoint -2°C / 28°F
Humidity 93%
Altimeter 29.29" Hg
Pressure 992 hPa
Elevation 4
METAR EFVA 151320Z AUTO 09005KT 070V130 9999 -SN OVC011/// M01/M02 Q0992
Observed Flight Rules
Dec-15 @ 13:20 UTC
(32 minutes ago)
MVFR
Wind Visibility
90° at 5 knots 10,000+ meters
Clouds
  • Overcast at 1,100' AGL
Conditions
  • Light Snow
Temperature Dewpoint
-1°C / 30°F -2°C / 28°F
Humidity Altimeter Pressure
93% 29.29" Hg 992 hPa